Time;durP1;ratioP1;P1;durP2;ratioP2;P2;SDS_P1;SDS_P2;PMS_P1;PMS_P2;Temp;Humidity;BMP_temperature;BMP_pressure;BME280_temperature;BME280_humidity;BME280_pressure;Samples;Min_cycle;Max_cycle;Signal;HPM_P1;HPM_P2
2021/12/04 00:00:26;;;;;;;1.23;1.13;;;;;;;;;;4948033;28;20231;-73
2021/12/04 00:02:55;;;;;;;7.90;4.47;;;;;;;;;;4949086;28;20286;-73
2021/12/04 00:05:23;;;;;;;0.50;0.33;;;;;;;;;;4949628;28;20213;-72
2021/12/04 00:07:51;;;;;;;2.27;1.93;;;;;;;;;;4948555;28;20562;-72
2021/12/04 00:10:21;;;;;;;1.30;1.17;;;;;;;;;;4951286;28;20217;-72
2021/12/04 00:12:49;;;;;;;4.43;2.97;;;;;;;;;;4949017;28;20234;-72
2021/12/04 00:15:17;;;;;;;3.60;3.30;;;;;;;;;;4948365;28;20221;-73
2021/12/04 00:17:44;;;;;;;6.97;4.97;;;;;;;;;;4949010;28;20207;-73
2021/12/04 00:20:13;;;;;;;0.30;0.30;;;;;;;;;;4950055;28;20941;-73
2021/12/04 00:22:41;;;;;;;2.63;1.50;;;;;;;;;;4948368;28;20199;-73
2021/12/04 00:25:09;;;;;;;1.33;1.23;;;;;;;;;;4949311;28;20203;-73
2021/12/04 00:27:37;;;;;;;1.67;1.57;;;;;;;;;;4946015;28;20199;-73
2021/12/04 00:30:05;;;;;;;3.57;2.27;;;;;;;;;;4948538;28;20202;-73
2021/12/04 00:32:35;;;;;;;2.47;0.67;;;;;;;;;;4948849;28;20265;-73
2021/12/04 00:35:09;;;;;;;8.90;4.90;;;;;;;;;;4949664;28;20241;-73
2021/12/04 00:38:07;;;;;;;5.93;3.07;;;;;;;;;;4949033;28;20222;-74
2021/12/04 00:49:07;;;;;;;1.43;1.33;;;;;;;;;;4948764;28;20645;-73
2021/12/04 00:49:10;;;;;;;7.90;3.33;;;;;;;;;;4949173;28;20217;-73
2021/12/04 00:51:39;;;;;;;1.90;1.23;;;;;;;;;;4949065;28;20211;-73
2021/12/04 00:54:10;;;;;;;3.80;2.20;;;;;;;;;;4948511;28;20203;-73
2021/12/04 00:56:37;;;;;;;0.00;0.00;;;;;;;;;;4949416;28;20612;-74
2021/12/04 00:59:05;;;;;;;2.67;2.23;;;;;;;;;;4946438;28;20225;-73
2021/12/04 01:01:33;;;;;;;2.03;1.33;;;;;;;;;;4948722;28;20230;-74
2021/12/04 01:04:00;;;;;;;2.80;1.73;;;;;;;;;;4947866;28;20199;-74
2021/12/04 01:06:27;;;;;;;0.00;0.00;;;;;;;;;;4949426;28;20211;-74
2021/12/04 01:08:55;;;;;;;0.33;0.33;;;;;;;;;;4946579;28;20199;-73
2021/12/04 01:11:24;;;;;;;0.87;0.83;;;;;;;;;;4947832;28;20578;-73
2021/12/04 01:13:51;;;;;;;0.10;0.10;;;;;;;;;;4947073;28;20207;-74
2021/12/04 01:16:18;;;;;;;2.77;1.73;;;;;;;;;;4946701;28;20675;-74
2021/12/04 01:18:46;;;;;;;2.03;1.90;;;;;;;;;;4947823;28;20227;-76
2021/12/04 01:21:13;;;;;;;0.07;0.07;;;;;;;;;;4949223;28;20707;-75
2021/12/04 01:23:41;;;;;;;1.60;1.40;;;;;;;;;;4949320;28;20243;-73
2021/12/04 01:26:08;;;;;;;1.20;0.53;;;;;;;;;;4947856;28;20202;-74
2021/12/04 01:28:37;;;;;;;0.10;0.10;;;;;;;;;;4946747;28;20217;-74
2021/12/04 01:31:04;;;;;;;0.93;0.93;;;;;;;;;;4948960;28;20656;-74
2021/12/04 01:33:32;;;;;;;0.00;0.00;;;;;;;;;;4949007;28;20214;-73
2021/12/04 01:36:00;;;;;;;0.67;0.57;;;;;;;;;;4947407;28;20217;-74
2021/12/04 01:38:27;;;;;;;1.47;1.37;;;;;;;;;;4949472;28;20215;-74
2021/12/04 01:40:55;;;;;;;2.53;1.87;;;;;;;;;;4947610;28;20231;-74
2021/12/04 01:43:22;;;;;;;0.00;0.00;;;;;;;;;;4947255;28;20207;-73
2021/12/04 01:45:54;;;;;;;0.53;0.53;;;;;;;;;;4945514;28;20492;-74
2021/12/04 01:48:21;;;;;;;0.00;0.00;;;;;;;;;;4948826;28;20203;-73
2021/12/04 01:50:49;;;;;;;0.23;0.23;;;;;;;;;;4949066;28;20199;-74
2021/12/04 01:53:17;;;;;;;0.10;0.10;;;;;;;;;;4948413;28;20211;-74
2021/12/04 01:55:44;;;;;;;1.63;1.30;;;;;;;;;;4946353;28;20209;-74
2021/12/04 01:58:13;;;;;;;1.60;1.37;;;;;;;;;;4949718;28;20578;-74
2021/12/04 02:00:41;;;;;;;4.67;2.83;;;;;;;;;;4950774;28;20222;-74
2021/12/04 02:03:13;;;;;;;0.00;0.00;;;;;;;;;;4952554;28;20591;-73
2021/12/04 02:05:41;;;;;;;1.40;1.30;;;;;;;;;;4950701;28;20225;-74
2021/12/04 02:08:08;;;;;;;0.30;0.30;;;;;;;;;;4950829;29;20210;-73
2021/12/04 02:10:36;;;;;;;0.97;0.93;;;;;;;;;;4952365;28;20203;-73
2021/12/04 02:13:04;;;;;;;0.67;0.40;;;;;;;;;;4951284;28;20214;-73
2021/12/04 02:15:32;;;;;;;1.30;1.20;;;;;;;;;;4949790;28;20576;-73
2021/12/04 02:18:02;;;;;;;0.10;0.10;;;;;;;;;;4952394;28;20211;-73
2021/12/04 02:20:33;;;;;;;2.57;1.97;;;;;;;;;;4952246;28;20257;-73
2021/12/04 02:23:01;;;;;;;2.93;2.07;;;;;;;;;;4949055;28;20215;-73
2021/12/04 02:25:28;;;;;;;0.00;0.00;;;;;;;;;;4952165;28;20214;-74
2021/12/04 02:27:56;;;;;;;0.60;0.57;;;;;;;;;;4951002;28;20198;-73
2021/12/04 02:30:25;;;;;;;2.37;1.87;;;;;;;;;;4951593;28;20675;-73
2021/12/04 02:32:53;;;;;;;0.13;0.13;;;;;;;;;;4952119;28;20215;-74
2021/12/04 02:35:21;;;;;;;5.30;2.43;;;;;;;;;;4951720;29;20199;-74
2021/12/04 02:37:50;;;;;;;0.80;0.80;;;;;;;;;;4952186;28;20230;-73
2021/12/04 02:40:20;;;;;;;0.60;0.60;;;;;;;;;;4950401;28;20222;-73
2021/12/04 02:42:47;;;;;;;1.40;1.03;;;;;;;;;;4950212;28;20215;-73
2021/12/04 02:45:15;;;;;;;5.83;3.30;;;;;;;;;;4950987;28;20223;-74
2021/12/04 02:47:44;;;;;;;3.70;2.63;;;;;;;;;;4950962;28;20238;-73
2021/12/04 02:50:13;;;;;;;0.97;0.87;;;;;;;;;;4951406;28;20222;-73
2021/12/04 02:52:42;;;;;;;0.30;0.30;;;;;;;;;;4950730;28;20211;-74
2021/12/04 02:55:11;;;;;;;0.93;0.93;;;;;;;;;;4950762;28;20195;-73
2021/12/04 02:57:43;;;;;;;0.20;0.20;;;;;;;;;;4949589;28;20620;-73
2021/12/04 03:00:11;;;;;;;2.53;1.67;;;;;;;;;;4950905;28;20761;-73
2021/12/04 03:02:38;;;;;;;0.20;0.20;;;;;;;;;;4950858;28;20203;-74
2021/12/04 03:05:09;;;;;;;0.20;0.20;;;;;;;;;;4951928;28;20687;-73
2021/12/04 03:07:36;;;;;;;0.43;0.43;;;;;;;;;;4949335;28;20211;-73
2021/12/04 03:10:04;;;;;;;1.70;1.60;;;;;;;;;;4947647;28;21792;-73
2021/12/04 03:12:33;;;;;;;0.83;0.60;;;;;;;;;;4950702;29;20207;-73
2021/12/04 03:15:00;;;;;;;4.50;1.40;;;;;;;;;;4950080;28;20298;-73
2021/12/04 03:17:28;;;;;;;0.10;0.10;;;;;;;;;;4949363;28;20301;-73
2021/12/04 03:19:55;;;;;;;1.40;1.30;;;;;;;;;;4952224;28;20230;-73
2021/12/04 03:22:24;;;;;;;0.87;0.87;;;;;;;;;;4950155;28;20207;-73
2021/12/04 03:24:52;;;;;;;0.57;0.57;;;;;;;;;;4951549;28;20222;-73
2021/12/04 03:27:20;;;;;;;0.80;0.80;;;;;;;;;;4948118;28;20290;-74
2021/12/04 03:29:55;;;;;;;3.17;2.97;;;;;;;;;;4952420;28;20214;-74
2021/12/04 03:35:19;;;;;;;3.10;1.53;;;;;;;;;;4894971;28;20330;-74
2021/12/04 03:40:39;;;;;;;0.80;0.77;;;;;;;;;;4949456;28;20242;-74
2021/12/04 03:43:08;;;;;;;1.10;1.00;;;;;;;;;;4950845;29;20208;-73
2021/12/04 03:45:39;;;;;;;0.23;0.20;;;;;;;;;;4950398;28;20324;-73
2021/12/04 03:48:11;;;;;;;1.37;1.27;;;;;;;;;;4951508;28;20202;-74
2021/12/04 03:50:39;;;;;;;0.13;0.13;;;;;;;;;;4950430;28;20633;-74
2021/12/04 03:53:06;;;;;;;1.53;1.43;;;;;;;;;;4950427;28;20226;-73
2021/12/04 03:55:34;;;;;;;0.00;0.00;;;;;;;;;;4948025;28;20209;-73
2021/12/04 03:58:02;;;;;;;1.67;1.57;;;;;;;;;;4951134;28;20214;-73
2021/12/04 04:00:29;;;;;;;0.50;0.43;;;;;;;;;;4950391;28;20250;-73
2021/12/04 04:03:00;;;;;;;0.00;0.00;;;;;;;;;;4950350;28;20203;-74
2021/12/04 04:05:27;;;;;;;0.00;0.00;;;;;;;;;;4949836;28;20203;-73
2021/12/04 04:07:55;;;;;;;0.00;0.00;;;;;;;;;;4949451;28;20203;-74
2021/12/04 04:10:22;;;;;;;0.00;0.00;;;;;;;;;;4949541;28;20207;-74
2021/12/04 04:12:50;;;;;;;0.00;0.00;;;;;;;;;;4948662;28;20700;-74
2021/12/04 04:15:20;;;;;;;0.00;0.00;;;;;;;;;;4949111;28;20302;-74
2021/12/04 04:17:47;;;;;;;0.00;0.00;;;;;;;;;;4947852;28;20772;-75
2021/12/04 04:20:17;;;;;;;0.00;0.00;;;;;;;;;;4949234;29;20733;-74
2021/12/04 04:22:46;;;;;;;0.00;0.00;;;;;;;;;;4949561;28;20640;-74
2021/12/04 04:25:14;;;;;;;0.00;0.00;;;;;;;;;;4949907;28;20232;-74
2021/12/04 04:27:42;;;;;;;0.00;0.00;;;;;;;;;;4946785;28;20559;-74
2021/12/04 04:30:13;;;;;;;0.00;0.00;;;;;;;;;;4950407;28;20203;-74
2021/12/04 04:32:40;;;;;;;0.87;0.87;;;;;;;;;;4949065;28;20668;-73
2021/12/04 04:35:10;;;;;;;0.00;0.00;;;;;;;;;;4946942;28;20317;-73
2021/12/04 04:37:46;;;;;;;0.00;0.00;;;;;;;;;;4948492;28;20599;-74
2021/12/04 04:59:49;;;;;;;0.00;0.00;;;;;;;;;;4947520;28;20262;-74
2021/12/04 05:02:35;;;;;;;0.00;0.00;;;;;;;;;;4949129;28;20235;-74
2021/12/04 05:13:18;;;;;;;0.00;0.00;;;;;;;;;;4935698;28;20293;-74
2021/12/04 05:15:56;;;;;;;0.00;0.00;;;;;;;;;;4949290;28;20269;-74
2021/12/04 05:18:33;;;;;;;0.00;0.00;;;;;;;;;;4949525;28;20211;-75
2021/12/04 05:21:04;;;;;;;0.00;0.00;;;;;;;;;;4946039;28;20256;-74
2021/12/04 05:23:32;;;;;;;0.00;0.00;;;;;;;;;;4947951;28;20219;-74
2021/12/04 05:26:01;;;;;;;0.00;0.00;;;;;;;;;;4947578;28;20679;-74
2021/12/04 05:28:28;;;;;;;0.00;0.00;;;;;;;;;;4948469;28;20599;-75
2021/12/04 05:30:56;;;;;;;0.00;0.00;;;;;;;;;;4948580;28;20571;-74
2021/12/04 05:33:23;;;;;;;0.20;0.20;;;;;;;;;;4948928;28;20207;-73
2021/12/04 05:35:51;;;;;;;0.00;0.00;;;;;;;;;;4951438;28;20210;-73
2021/12/04 05:38:19;;;;;;;1.10;0.57;;;;;;;;;;4953173;28;20636;-74
2021/12/04 05:40:47;;;;;;;0.67;0.67;;;;;;;;;;4951389;28;20289;-74
2021/12/04 05:43:18;;;;;;;0.00;0.00;;;;;;;;;;4953524;28;20222;-74
2021/12/04 05:45:49;;;;;;;0.00;0.00;;;;;;;;;;4952734;28;20281;-74
2021/12/04 05:48:20;;;;;;;0.00;0.00;;;;;;;;;;4952383;28;20210;-74
2021/12/04 05:53:43;;;;;;;0.00;0.00;;;;;;;;;;4942969;28;20218;-73
2021/12/04 05:56:11;;;;;;;0.00;0.00;;;;;;;;;;4952900;28;20297;-73
2021/12/04 05:58:40;;;;;;;0.00;0.00;;;;;;;;;;4952147;28;20206;-74
2021/12/04 06:01:08;;;;;;;0.00;0.00;;;;;;;;;;4950888;28;20234;-73
2021/12/04 06:03:36;;;;;;;0.00;0.00;;;;;;;;;;4951360;28;20637;-74
2021/12/04 06:06:03;;;;;;;0.00;0.00;;;;;;;;;;4951566;28;20206;-74
2021/12/04 06:08:31;;;;;;;0.00;0.00;;;;;;;;;;4952646;28;20240;-74
2021/12/04 06:10:59;;;;;;;0.00;0.00;;;;;;;;;;4951640;28;20219;-74
2021/12/04 06:13:26;;;;;;;0.00;0.00;;;;;;;;;;4951359;28;20199;-74
2021/12/04 06:15:55;;;;;;;0.00;0.00;;;;;;;;;;4950315;28;20656;-74
2021/12/04 06:18:23;;;;;;;0.00;0.00;;;;;;;;;;4951093;28;20586;-73
2021/12/04 06:23:35;;;;;;;0.00;0.00;;;;;;;;;;4951577;28;20210;-74
2021/12/04 06:26:05;;;;;;;0.00;0.00;;;;;;;;;;4950264;28;20215;-74
2021/12/04 06:28:33;;;;;;;0.00;0.00;;;;;;;;;;4951321;28;20219;-75
2021/12/04 06:31:02;;;;;;;0.00;0.00;;;;;;;;;;4951446;28;20210;-74
2021/12/04 06:33:30;;;;;;;0.00;0.00;;;;;;;;;;4951385;28;20214;-73
2021/12/04 06:35:57;;;;;;;0.00;0.00;;;;;;;;;;4949804;28;20211;-75
2021/12/04 06:38:25;;;;;;;0.63;0.63;;;;;;;;;;4951689;28;20199;-74
2021/12/04 06:40:52;;;;;;;0.00;0.00;;;;;;;;;;4952319;28;20215;-74
2021/12/04 06:43:20;;;;;;;0.53;0.27;;;;;;;;;;4951054;28;20411;-74
2021/12/04 06:45:56;;;;;;;0.07;0.07;;;;;;;;;;4950886;28;20680;-75
2021/12/04 06:48:30;;;;;;;0.20;0.20;;;;;;;;;;4951934;28;20688;-74
2021/12/04 06:51:00;;;;;;;0.30;0.30;;;;;;;;;;4949120;28;20224;-75
2021/12/04 06:53:31;;;;;;;0.00;0.00;;;;;;;;;;4950987;28;20738;-74
2021/12/04 06:56:00;;;;;;;0.07;0.07;;;;;;;;;;4950534;28;20282;-74
2021/12/04 06:58:29;;;;;;;0.00;0.00;;;;;;;;;;4951320;28;20608;-74
2021/12/04 07:00:57;;;;;;;0.00;0.00;;;;;;;;;;4949498;28;20267;-74
2021/12/04 07:03:26;;;;;;;0.10;0.10;;;;;;;;;;4951169;28;20207;-74
2021/12/04 07:05:53;;;;;;;0.00;0.00;;;;;;;;;;4950031;28;20199;-74
2021/12/04 07:08:20;;;;;;;3.13;3.03;;;;;;;;;;4951351;28;20687;-74
2021/12/04 07:10:48;;;;;;;0.00;0.00;;;;;;;;;;4950676;28;20199;-74
2021/12/04 07:13:15;;;;;;;0.00;0.00;;;;;;;;;;4949898;28;20205;-74
2021/12/04 07:15:45;;;;;;;0.00;0.00;;;;;;;;;;4951639;29;20687;-74
2021/12/04 07:18:13;;;;;;;0.00;0.00;;;;;;;;;;4948164;28;21782;-74
2021/12/04 07:20:42;;;;;;;0.00;0.00;;;;;;;;;;4949619;28;20242;-73
2021/12/04 07:23:09;;;;;;;0.00;0.00;;;;;;;;;;4949611;28;20230;-74
2021/12/04 07:25:37;;;;;;;0.00;0.00;;;;;;;;;;4950484;28;20203;-76
2021/12/04 07:28:04;;;;;;;0.03;0.03;;;;;;;;;;4950099;28;20239;-75
2021/12/04 07:30:32;;;;;;;0.00;0.00;;;;;;;;;;4950678;28;20203;-75
2021/12/04 07:32:59;;;;;;;0.00;0.00;;;;;;;;;;4948758;28;20214;-73
2021/12/04 07:35:26;;;;;;;0.00;0.00;;;;;;;;;;4949102;28;20207;-75
2021/12/04 07:37:55;;;;;;;0.00;0.00;;;;;;;;;;4949368;28;20214;-74
2021/12/04 07:40:24;;;;;;;0.00;0.00;;;;;;;;;;4949465;28;20222;-74
2021/12/04 07:42:51;;;;;;;0.00;0.00;;;;;;;;;;4949812;28;20227;-74
2021/12/04 07:45:19;;;;;;;0.00;0.00;;;;;;;;;;4950254;28;20218;-74
2021/12/04 07:47:46;;;;;;;0.03;0.03;;;;;;;;;;4948782;28;20207;-74
2021/12/04 07:50:14;;;;;;;0.00;0.00;;;;;;;;;;4949673;28;20214;-74
2021/12/04 07:52:42;;;;;;;0.00;0.00;;;;;;;;;;4950045;28;20668;-73
2021/12/04 07:55:11;;;;;;;5.20;0.87;;;;;;;;;;4950676;28;20210;-73
2021/12/04 07:57:39;;;;;;;0.00;0.00;;;;;;;;;;4948706;28;20215;-74
2021/12/04 08:00:08;;;;;;;1.97;1.60;;;;;;;;;;4948326;28;20302;-75
2021/12/04 08:02:36;;;;;;;0.00;0.00;;;;;;;;;;4948440;28;20554;-73
2021/12/04 08:05:04;;;;;;;0.00;0.00;;;;;;;;;;4948892;28;20215;-74
2021/12/04 08:07:31;;;;;;;1.70;0.70;;;;;;;;;;4949893;28;20199;-74
2021/12/04 08:09:59;;;;;;;0.10;0.10;;;;;;;;;;4950015;28;20196;-74
2021/12/04 08:12:27;;;;;;;0.00;0.00;;;;;;;;;;4948072;28;20217;-74
2021/12/04 08:14:55;;;;;;;1.87;1.60;;;;;;;;;;4950267;28;20218;-74
2021/12/04 08:17:24;;;;;;;0.00;0.00;;;;;;;;;;4943541;28;20238;-74
2021/12/04 08:19:52;;;;;;;0.00;0.00;;;;;;;;;;4949942;28;20266;-74
2021/12/04 08:22:19;;;;;;;0.53;0.33;;;;;;;;;;4947733;28;20227;-75
2021/12/04 08:24:47;;;;;;;0.00;0.00;;;;;;;;;;4947891;28;20211;-75
2021/12/04 08:27:14;;;;;;;2.10;0.53;;;;;;;;;;4949567;28;20801;-78
2021/12/04 08:29:44;;;;;;;0.00;0.00;;;;;;;;;;4946534;28;20207;-73
2021/12/04 08:32:11;;;;;;;0.00;0.00;;;;;;;;;;4946185;28;20592;-74
2021/12/04 08:34:39;;;;;;;3.00;0.60;;;;;;;;;;4948565;29;20218;-71
2021/12/04 08:37:07;;;;;;;0.57;0.57;;;;;;;;;;4949390;28;20206;-75
2021/12/04 08:39:34;;;;;;;0.00;0.00;;;;;;;;;;4942640;28;20206;-72
2021/12/04 08:42:02;;;;;;;5.00;1.67;;;;;;;;;;4945625;28;20595;-75
2021/12/04 08:44:30;;;;;;;0.00;0.00;;;;;;;;;;4948471;28;20579;-73
2021/12/04 08:46:59;;;;;;;0.53;0.47;;;;;;;;;;4945533;28;20723;-73
2021/12/04 08:49:29;;;;;;;0.83;0.83;;;;;;;;;;4948231;28;20203;-73
2021/12/04 08:51:57;;;;;;;1.30;1.30;;;;;;;;;;4947515;28;20203;-74
2021/12/04 08:54:24;;;;;;;2.20;1.37;;;;;;;;;;4947207;28;20198;-73
2021/12/04 08:56:52;;;;;;;0.63;0.63;;;;;;;;;;4947946;28;20215;-74
2021/12/04 08:59:19;;;;;;;1.00;0.20;;;;;;;;;;4947677;28;20321;-73
2021/12/04 09:01:47;;;;;;;1.50;1.03;;;;;;;;;;4945412;28;20264;-74
2021/12/04 09:04:17;;;;;;;1.20;1.10;;;;;;;;;;4946386;28;20683;-73
2021/12/04 09:06:45;;;;;;;1.70;1.60;;;;;;;;;;4947261;28;20202;-73
2021/12/04 09:09:13;;;;;;;0.50;0.30;;;;;;;;;;4947455;28;20214;-74
2021/12/04 09:11:42;;;;;;;0.07;0.07;;;;;;;;;;4947824;28;20203;-69
2021/12/04 09:14:10;;;;;;;0.00;0.00;;;;;;;;;;4947684;28;22029;-71
2021/12/04 09:16:39;;;;;;;0.53;0.53;;;;;;;;;;4948912;28;20587;-72
2021/12/04 09:19:06;;;;;;;0.53;0.53;;;;;;;;;;4947756;28;20689;-72
2021/12/04 09:21:37;;;;;;;0.00;0.00;;;;;;;;;;4943885;28;20216;-72
2021/12/04 09:24:08;;;;;;;0.00;0.00;;;;;;;;;;4946315;28;20207;-72
2021/12/04 09:26:45;;;;;;;0.00;0.00;;;;;;;;;;4945677;28;20214;-73
2021/12/04 09:29:29;;;;;;;0.10;0.10;;;;;;;;;;4947735;28;20199;-72
2021/12/04 09:35:14;;;;;;;2.40;2.20;;;;;;;;;;4932049;28;20214;-71
2021/12/04 09:59:10;;;;;;;0.70;0.30;;;;;;;;;;4951872;28;20273;-72
2021/12/04 10:00:22;;;;;;;2.33;0.97;;;;;;;;;;4949138;28;20975;-71
2021/12/04 10:05:59;;;;;;;0.23;0.17;;;;;;;;;;4955898;28;20222;-72
2021/12/04 10:14:49;;;;;;;1.33;0.20;;;;;;;;;;4961379;28;20301;-71
2021/12/04 10:17:43;;;;;;;0.30;0.30;;;;;;;;;;4956503;28;20203;-71
2021/12/04 10:20:21;;;;;;;5.10;3.50;;;;;;;;;;4962051;28;20245;-71
2021/12/04 10:23:20;;;;;;;2.50;0.63;;;;;;;;;;4957323;28;20329;-72
2021/12/04 10:34:31;;;;;;;0.17;0.17;;;;;;;;;;4968355;28;20210;-74
2021/12/04 10:37:05;;;;;;;4.17;2.83;;;;;;;;;;4960971;28;20207;-72
2021/12/04 10:39:34;;;;;;;7.13;4.37;;;;;;;;;;4948162;28;20343;-75
2021/12/04 10:42:04;;;;;;;2.17;1.70;;;;;;;;;;4952606;28;20218;-73
2021/12/04 10:44:33;;;;;;;1.40;1.30;;;;;;;;;;4943252;28;20223;-74
2021/12/04 10:47:05;;;;;;;2.00;1.60;;;;;;;;;;4957205;28;20204;-75
2021/12/04 10:49:42;;;;;;;0.20;0.20;;;;;;;;;;4973379;28;20199;-83
2021/12/04 10:52:19;;;;;;;0.13;0.13;;;;;;;;;;4949651;28;20199;-72
2021/12/04 10:54:51;;;;;;;0.20;0.20;;;;;;;;;;4948140;28;20199;-78
2021/12/04 10:58:06;;;;;;;0.53;0.53;;;;;;;;;;4949553;28;20666;-72
2021/12/04 11:03:35;;;;;;;0.60;0.60;;;;;;;;;;4948634;28;20223;-78
2021/12/04 11:23:21;;;;;;;0.10;0.10;;;;;;;;;;4946478;28;20230;-74
2021/12/04 11:26:06;;;;;;;0.00;0.00;;;;;;;;;;4949846;28;20295;-74
2021/12/04 11:28:58;;;;;;;0.00;0.00;;;;;;;;;;4950856;28;20234;-74
2021/12/04 11:37:20;;;;;;;0.00;0.00;;;;;;;;;;4948239;28;20286;-74
2021/12/04 11:42:39;;;;;;;2.40;2.00;;;;;;;;;;4942105;28;20226;-72
2021/12/04 11:45:14;;;;;;;0.20;0.20;;;;;;;;;;4949669;28;20664;-72
2021/12/04 11:47:43;;;;;;;0.30;0.10;;;;;;;;;;4946916;28;20667;-74
2021/12/04 11:50:20;;;;;;;0.53;0.53;;;;;;;;;;4950382;28;20691;-73
2021/12/04 11:52:48;;;;;;;0.33;0.33;;;;;;;;;;4949637;28;20205;-73
2021/12/04 11:55:19;;;;;;;0.00;0.00;;;;;;;;;;4948349;28;20207;-73
2021/12/04 11:57:46;;;;;;;0.00;0.00;;;;;;;;;;4950183;28;20254;-73
2021/12/04 12:00:17;;;;;;;0.00;0.00;;;;;;;;;;4946881;28;20635;-74
2021/12/04 12:02:45;;;;;;;0.00;0.00;;;;;;;;;;4944749;28;20235;-74
2021/12/04 12:05:17;;;;;;;0.00;0.00;;;;;;;;;;4946901;28;20203;-73
2021/12/04 12:07:54;;;;;;;0.00;0.00;;;;;;;;;;4949990;28;20213;-73
2021/12/04 12:10:22;;;;;;;0.23;0.20;;;;;;;;;;4949439;28;20213;-76
2021/12/04 12:12:50;;;;;;;0.00;0.00;;;;;;;;;;4947219;28;20680;-75
2021/12/04 12:15:20;;;;;;;0.00;0.00;;;;;;;;;;4946671;28;20202;-73
2021/12/04 12:17:48;;;;;;;0.00;0.00;;;;;;;;;;4944306;28;21866;-73
2021/12/04 12:20:21;;;;;;;0.00;0.00;;;;;;;;;;4946848;28;20313;-74
2021/12/04 12:22:51;;;;;;;0.00;0.00;;;;;;;;;;4948600;29;20222;-76
2021/12/04 12:25:25;;;;;;;0.10;0.10;;;;;;;;;;4949736;28;20689;-74
2021/12/04 12:33:41;;;;;;;0.00;0.00;;;;;;;;;;4938278;28;20254;-73
2021/12/04 12:36:09;;;;;;;0.00;0.00;;;;;;;;;;4944523;28;20211;-72
2021/12/04 12:38:39;;;;;;;0.00;0.00;;;;;;;;;;4943993;28;20211;-70
2021/12/04 12:41:09;;;;;;;0.00;0.00;;;;;;;;;;4947847;28;20566;-69
2021/12/04 12:43:39;;;;;;;0.00;0.00;;;;;;;;;;4951581;28;20599;-69
2021/12/04 12:46:07;;;;;;;0.00;0.00;;;;;;;;;;4950641;28;20210;-72
2021/12/04 12:48:48;;;;;;;0.00;0.00;;;;;;;;;;4952898;28;20626;-70
2021/12/04 12:51:16;;;;;;;0.00;0.00;;;;;;;;;;4954629;28;20215;-69
2021/12/04 12:53:45;;;;;;;0.00;0.00;;;;;;;;;;4946515;28;20203;-71
2021/12/04 12:56:15;;;;;;;0.00;0.00;;;;;;;;;;4944331;28;20215;-69
2021/12/04 12:58:46;;;;;;;0.00;0.00;;;;;;;;;;4948403;28;20584;-69
2021/12/04 13:12:43;;;;;;;0.00;0.00;;;;;;;;;;4946962;28;20217;-70
2021/12/04 13:15:11;;;;;;;0.10;0.10;;;;;;;;;;4947022;28;20285;-70
2021/12/04 13:17:40;;;;;;;0.00;0.00;;;;;;;;;;4950101;28;20667;-70
2021/12/04 13:20:10;;;;;;;0.00;0.00;;;;;;;;;;4949532;28;20234;-69
2021/12/04 13:22:38;;;;;;;0.20;0.10;;;;;;;;;;4946617;28;20203;-68
2021/12/04 13:25:07;;;;;;;0.00;0.00;;;;;;;;;;4944375;28;20696;-68
2021/12/04 13:30:06;;;;;;;3.10;0.43;;;;;;;;;;4949033;28;20214;-68
2021/12/04 13:32:34;;;;;;;0.17;0.07;;;;;;;;;;4943317;28;20222;-70
2021/12/04 13:35:06;;;;;;;0.20;0.13;;;;;;;;;;4947121;28;20583;-70
2021/12/04 13:37:35;;;;;;;0.00;0.00;;;;;;;;;;4946086;28;20242;-69
2021/12/04 13:40:07;;;;;;;0.00;0.00;;;;;;;;;;4946019;28;20242;-75
2021/12/04 13:42:35;;;;;;;0.00;0.00;;;;;;;;;;4947996;28;20214;-69
2021/12/04 13:45:05;;;;;;;0.20;0.20;;;;;;;;;;4948437;28;21111;-69
2021/12/04 13:47:32;;;;;;;0.67;0.20;;;;;;;;;;4951067;28;20207;-71
2021/12/04 13:50:00;;;;;;;0.00;0.00;;;;;;;;;;4952688;28;20205;-69
2021/12/04 13:52:31;;;;;;;0.13;0.13;;;;;;;;;;4951944;28;20723;-68
2021/12/04 13:55:00;;;;;;;0.03;0.03;;;;;;;;;;4952321;28;20253;-69
2021/12/04 13:57:28;;;;;;;0.03;0.03;;;;;;;;;;4957144;28;20211;-73
2021/12/04 13:59:58;;;;;;;1.33;0.60;;;;;;;;;;4952327;28;20301;-68
2021/12/04 14:02:28;;;;;;;0.43;0.43;;;;;;;;;;4957315;28;20241;-68
2021/12/04 14:04:58;;;;;;;0.00;0.00;;;;;;;;;;4950853;28;20231;-69
2021/12/04 14:07:25;;;;;;;0.00;0.00;;;;;;;;;;4947611;28;20207;-67
2021/12/04 14:09:53;;;;;;;0.00;0.00;;;;;;;;;;4955193;28;20285;-68
2021/12/04 14:12:20;;;;;;;0.20;0.20;;;;;;;;;;4953757;28;20212;-68
2021/12/04 14:14:48;;;;;;;8.13;1.10;;;;;;;;;;4948210;28;20206;-70
2021/12/04 14:17:18;;;;;;;5.53;0.70;;;;;;;;;;4956213;28;20252;-70
2021/12/04 14:19:47;;;;;;;0.40;0.40;;;;;;;;;;4948283;28;20243;-70
2021/12/04 14:22:16;;;;;;;0.30;0.30;;;;;;;;;;4949219;28;20211;-71
2021/12/04 14:24:45;;;;;;;0.60;0.60;;;;;;;;;;4959420;28;20257;-70
2021/12/04 14:27:15;;;;;;;0.20;0.20;;;;;;;;;;4951914;28;20208;-75
2021/12/04 14:29:44;;;;;;;0.10;0.10;;;;;;;;;;4958264;28;20336;-72
2021/12/04 14:32:12;;;;;;;0.10;0.00;;;;;;;;;;4951198;28;20273;-71
2021/12/04 14:34:40;;;;;;;0.10;0.10;;;;;;;;;;4949750;28;20294;-70
2021/12/04 14:37:11;;;;;;;0.17;0.17;;;;;;;;;;4954805;28;20204;-73
2021/12/04 14:39:39;;;;;;;0.03;0.03;;;;;;;;;;4953346;28;20231;-70
2021/12/04 14:42:15;;;;;;;0.43;0.30;;;;;;;;;;4954997;28;20568;-70
2021/12/04 14:44:43;;;;;;;0.00;0.00;;;;;;;;;;4956745;28;20235;-69
2021/12/04 14:47:11;;;;;;;0.80;0.37;;;;;;;;;;4957112;28;20222;-69
2021/12/04 14:49:41;;;;;;;0.00;0.00;;;;;;;;;;4948358;28;20214;-69
2021/12/04 14:52:10;;;;;;;0.00;0.00;;;;;;;;;;4944980;28;20206;-70
2021/12/04 14:54:39;;;;;;;0.10;0.00;;;;;;;;;;4945195;28;20209;-71
2021/12/04 14:57:14;;;;;;;0.00;0.00;;;;;;;;;;4953657;28;20218;-72
2021/12/04 14:59:41;;;;;;;0.50;0.50;;;;;;;;;;4953442;28;20207;-71
2021/12/04 15:02:14;;;;;;;0.00;0.00;;;;;;;;;;4953543;28;20210;-70
2021/12/04 15:04:41;;;;;;;0.00;0.00;;;;;;;;;;4951001;28;20249;-69
2021/12/04 15:07:19;;;;;;;0.30;0.30;;;;;;;;;;4949392;28;22321;-73
2021/12/04 15:09:47;;;;;;;0.20;0.20;;;;;;;;;;4954352;28;20210;-68
2021/12/04 15:12:24;;;;;;;0.00;0.00;;;;;;;;;;4956233;28;20210;-68
2021/12/04 15:14:56;;;;;;;0.00;0.00;;;;;;;;;;4943600;28;20204;-71
2021/12/04 15:17:24;;;;;;;0.00;0.00;;;;;;;;;;4944006;28;20195;-72
2021/12/04 15:19:53;;;;;;;0.00;0.00;;;;;;;;;;4944575;28;20222;-72
2021/12/04 15:22:28;;;;;;;0.00;0.00;;;;;;;;;;4944292;28;20297;-69
2021/12/04 15:24:57;;;;;;;0.60;0.60;;;;;;;;;;4941559;28;20235;-69
2021/12/04 15:27:28;;;;;;;20.93;1.60;;;;;;;;;;4936928;28;20290;-69
2021/12/04 15:29:57;;;;;;;1.37;0.00;;;;;;;;;;4940376;28;20210;-70
2021/12/04 15:32:25;;;;;;;0.00;0.00;;;;;;;;;;4943453;28;20250;-71
2021/12/04 15:34:53;;;;;;;0.00;0.00;;;;;;;;;;4947659;28;20305;-73
2021/12/04 15:37:33;;;;;;;0.00;0.00;;;;;;;;;;4947651;28;20289;-68
2021/12/04 15:40:00;;;;;;;0.00;0.00;;;;;;;;;;4941837;28;20215;-68
2021/12/04 15:42:30;;;;;;;0.00;0.00;;;;;;;;;;4940381;28;20919;-72
2021/12/04 15:45:24;;;;;;;0.57;0.57;;;;;;;;;;4942466;28;20318;-70
2021/12/04 15:48:06;;;;;;;0.00;0.00;;;;;;;;;;4950350;28;20313;-70
2021/12/04 15:50:51;;;;;;;0.00;0.00;;;;;;;;;;4949669;28;20494;-75
2021/12/04 15:53:21;;;;;;;0.00;0.00;;;;;;;;;;4949453;28;20607;-68
2021/12/04 15:55:50;;;;;;;0.00;0.00;;;;;;;;;;4949016;28;20211;-69
2021/12/04 15:58:19;;;;;;;0.40;0.17;;;;;;;;;;4948094;28;20251;-72
2021/12/04 16:00:49;;;;;;;0.00;0.00;;;;;;;;;;4941037;28;20211;-69
2021/12/04 16:03:17;;;;;;;0.40;0.10;;;;;;;;;;4949465;28;20207;-69
2021/12/04 16:05:50;;;;;;;0.23;0.23;;;;;;;;;;4949803;28;20246;-69
2021/12/04 16:08:19;;;;;;;0.00;0.00;;;;;;;;;;4949410;28;20214;-65
2021/12/04 16:10:49;;;;;;;0.20;0.20;;;;;;;;;;4949294;28;20219;-70
2021/12/04 16:13:18;;;;;;;0.37;0.37;;;;;;;;;;4951043;28;20211;-69
2021/12/04 16:15:45;;;;;;;0.73;0.20;;;;;;;;;;4948067;28;20211;-70
2021/12/04 16:18:14;;;;;;;0.00;0.00;;;;;;;;;;4948955;28;20672;-70
2021/12/04 16:20:41;;;;;;;0.00;0.00;;;;;;;;;;4950123;28;20290;-68
2021/12/04 16:23:09;;;;;;;0.00;0.00;;;;;;;;;;4949524;28;20241;-71
2021/12/04 16:25:37;;;;;;;0.00;0.00;;;;;;;;;;4947854;28;20710;-75
2021/12/04 16:28:16;;;;;;;0.37;0.17;;;;;;;;;;4946720;28;20224;-66
2021/12/04 16:30:54;;;;;;;0.77;0.23;;;;;;;;;;4948866;28;20521;-69
2021/12/04 16:33:41;;;;;;;0.40;0.33;;;;;;;;;;4940186;28;20704;-72
2021/12/04 16:36:20;;;;;;;1.53;1.10;;;;;;;;;;4944475;28;20202;-70
2021/12/04 16:38:47;;;;;;;0.67;0.17;;;;;;;;;;4948003;29;20214;-70
2021/12/04 16:41:16;;;;;;;0.60;0.10;;;;;;;;;;4948797;28;20671;-70
2021/12/04 16:43:46;;;;;;;0.00;0.00;;;;;;;;;;4949021;28;20211;-72
2021/12/04 16:46:15;;;;;;;0.53;0.30;;;;;;;;;;4949220;28;20698;-69
2021/12/04 16:48:46;;;;;;;1.90;0.47;;;;;;;;;;4949685;28;20207;-70
2021/12/04 16:57:18;;;;;;;0.10;0.10;;;;;;;;;;4949069;28;20257;-68
2021/12/04 16:59:50;;;;;;;0.00;0.00;;;;;;;;;;4946775;28;20202;-71
2021/12/04 17:02:18;;;;;;;0.00;0.00;;;;;;;;;;4944475;28;20207;-70
2021/12/04 17:04:46;;;;;;;0.10;0.10;;;;;;;;;;4948564;28;20231;-70
2021/12/04 17:07:13;;;;;;;0.20;0.20;;;;;;;;;;4945245;28;20669;-72
2021/12/04 17:09:41;;;;;;;0.20;0.20;;;;;;;;;;4936989;28;20196;-69
2021/12/04 17:12:09;;;;;;;0.10;0.00;;;;;;;;;;4943218;28;20206;-70
2021/12/04 17:14:37;;;;;;;0.00;0.00;;;;;;;;;;4937964;28;20317;-70
2021/12/04 17:17:11;;;;;;;0.13;0.13;;;;;;;;;;4939046;28;20224;-67
2021/12/04 17:19:38;;;;;;;1.23;1.07;;;;;;;;;;4942138;28;20321;-70